Time;durP1;ratioP1;P1;durP2;ratioP2;P2;SDS_P1;SDS_P2;PMS_P1;PMS_P2;Temp;Humidity;BMP_temperature;BMP_pressure;BME280_temperature;BME280_humidity;BME280_pressure;Samples;Min_cycle;Max_cycle;Signal;HPM_P1;HPM_P2
2024/01/12 00:01:42;;;;;;;32.63;15.48;;;;;;;-3.77;100.00;102546.56;5044065;28;20892;-80
2024/01/12 00:04:16;;;;;;;31.80;15.15;;;;;;;-3.73;100.00;102555.94;5058303;28;20905;-80
2024/01/12 00:06:46;;;;;;;32.83;15.50;;;;;;;-3.83;100.00;102558.59;5046310;28;20508;-79
2024/01/12 00:09:14;;;;;;;35.47;15.85;;;;;;;-3.86;100.00;102560.72;5049043;28;20460;-79
2024/01/12 00:11:43;;;;;;;30.50;14.90;;;;;;;-3.89;100.00;102559.16;5048408;28;20433;-79
2024/01/12 00:14:16;;;;;;;33.78;15.63;;;;;;;-3.93;100.00;102565.75;5057887;28;20420;-79
2024/01/12 00:16:48;;;;;;;32.47;16.25;;;;;;;-3.95;100.00;102579.19;5059959;28;20787;-79
2024/01/12 00:19:21;;;;;;;36.45;16.77;;;;;;;-3.93;100.00;102576.38;5043185;28;20421;-79
2024/01/12 00:21:56;;;;;;;37.00;16.40;;;;;;;-3.93;100.00;102584.34;5057134;28;20414;-80
2024/01/12 00:24:29;;;;;;;41.80;16.75;;;;;;;-3.92;100.00;102583.38;5045277;28;20452;-80
2024/01/12 00:26:57;;;;;;;37.17;16.95;;;;;;;-3.94;100.00;102586.16;5059803;28;20417;-79
2024/01/12 00:29:25;;;;;;;33.55;17.45;;;;;;;-3.98;100.00;102584.78;5060964;28;20415;-80
2024/01/12 00:31:58;;;;;;;35.40;17.23;;;;;;;-4.04;100.00;102582.66;5042381;28;20454;-80
2024/01/12 00:34:31;;;;;;;36.72;17.88;;;;;;;-4.11;100.00;102586.84;5058624;28;21181;-79
2024/01/12 00:37:01;;;;;;;38.25;17.73;;;;;;;-4.18;100.00;102586.53;5057954;28;20429;-79
2024/01/12 00:39:35;;;;;;;34.22;17.33;;;;;;;-4.16;100.00;102575.75;5042374;28;20415;-79
2024/01/12 00:42:03;;;;;;;35.72;17.10;;;;;;;-4.24;100.00;102581.72;5048262;28;20423;-79
2024/01/12 00:44:37;;;;;;;34.00;17.55;;;;;;;-4.23;100.00;102585.25;5043896;28;20424;-80
2024/01/12 00:47:10;;;;;;;31.85;16.35;;;;;;;-4.28;100.00;102586.50;5060461;28;20408;-80
2024/01/12 00:49:38;;;;;;;35.55;16.15;;;;;;;-4.29;100.00;102571.50;5046759;28;20421;-80
2024/01/12 00:52:13;;;;;;;33.55;17.02;;;;;;;-4.29;100.00;102574.19;5056995;28;20424;-80
2024/01/12 00:54:46;;;;;;;31.23;16.65;;;;;;;-4.26;100.00;102583.69;5058776;28;20420;-79
2024/01/12 00:57:20;;;;;;;32.58;16.73;;;;;;;-4.34;100.00;102584.34;5045253;28;20892;-80
2024/01/12 00:59:48;;;;;;;34.00;18.10;;;;;;;-4.28;100.00;102575.00;5046394;28;20433;-79
2024/01/12 01:02:21;;;;;;;35.97;17.65;;;;;;;-4.32;100.00;102573.63;5056973;28;20428;-79
2024/01/12 01:04:55;;;;;;;34.35;17.08;;;;;;;-4.37;100.00;102583.81;5045982;28;20428;-80
2024/01/12 01:07:24;;;;;;;36.10;17.33;;;;;;;-4.39;100.00;102583.94;5057815;28;20915;-80
2024/01/12 01:09:52;;;;;;;33.78;17.08;;;;;;;-4.41;100.00;102580.56;5060019;28;20412;-79
2024/01/12 01:12:21;;;;;;;38.47;17.93;;;;;;;-4.43;100.00;102582.53;5059805;28;20419;-80
2024/01/12 01:14:49;;;;;;;33.20;17.67;;;;;;;-4.46;100.00;102580.13;5041874;28;20458;-80
2024/01/12 01:17:24;;;;;;;35.03;16.40;;;;;;;-4.51;100.00;102577.88;5043564;28;20424;-79
2024/01/12 01:19:58;;;;;;;31.80;16.10;;;;;;;-4.53;100.00;102578.97;5040156;28;20423;-79
2024/01/12 01:22:29;;;;;;;33.42;17.10;;;;;;;-4.51;100.00;102571.72;5058802;28;20425;-80
2024/01/12 01:24:57;;;;;;;36.80;17.42;;;;;;;-4.53;100.00;102563.88;5049041;28;20435;-80
2024/01/12 01:27:30;;;;;;;33.55;15.93;;;;;;;-4.56;100.00;102557.97;5058976;28;20485;-80
2024/01/12 01:30:05;;;;;;;32.17;16.98;;;;;;;-4.54;100.00;102564.84;5060019;28;20939;-80
2024/01/12 01:32:38;;;;;;;36.43;17.37;;;;;;;-4.54;100.00;102561.34;5060306;28;21232;-80
2024/01/12 01:35:11;;;;;;;34.22;16.98;;;;;;;-4.53;100.00;102563.03;5058648;28;20421;-79
2024/01/12 01:37:41;;;;;;;37.35;17.98;;;;;;;-4.63;100.00;102555.88;5060961;28;20434;-79
2024/01/12 01:40:10;;;;;;;36.15;17.35;;;;;;;-4.61;100.00;102548.59;5055378;28;20421;-80
2024/01/12 01:42:46;;;;;;;33.90;17.73;;;;;;;-4.59;100.00;102548.47;5039090;28;20441;-80
2024/01/12 01:45:19;;;;;;;34.80;17.90;;;;;;;-4.63;100.00;102561.19;5057987;28;20420;-80
2024/01/12 01:47:48;;;;;;;34.47;17.63;;;;;;;-4.62;100.00;102557.53;5040429;28;20459;-80
2024/01/12 01:50:17;;;;;;;29.83;17.23;;;;;;;-4.69;100.00;102559.03;5059186;28;20411;-80
2024/01/12 01:52:47;;;;;;;32.78;17.30;;;;;;;-4.70;100.00;102561.84;5062706;28;20426;-79
2024/01/12 01:55:20;;;;;;;33.55;17.33;;;;;;;-4.71;100.00;102563.66;5058412;28;20910;-80
2024/01/12 01:57:54;;;;;;;34.03;17.88;;;;;;;-4.59;100.00;102551.13;5058054;28;20904;-80
2024/01/12 02:00:28;;;;;;;29.20;16.63;;;;;;;-4.51;100.00;102538.00;5046996;28;20427;-80
2024/01/12 02:03:02;;;;;;;32.22;17.70;;;;;;;-4.55;100.00;102554.38;5042406;28;20450;-80
2024/01/12 02:05:36;;;;;;;31.70;17.27;;;;;;;-4.66;100.00;102556.13;5047567;28;20433;-80
2024/01/12 02:08:06;;;;;;;30.77;16.40;;;;;;;-4.73;100.00;102562.09;5057662;28;20418;-79
2024/01/12 02:10:34;;;;;;;31.55;17.17;;;;;;;-4.76;100.00;102559.69;5056953;28;20407;-80
2024/01/12 02:13:03;;;;;;;34.45;17.27;;;;;;;-4.77;100.00;102566.84;5047778;28;20440;-80
2024/01/12 02:15:31;;;;;;;30.88;17.30;;;;;;;-4.84;100.00;102566.50;5058803;28;21999;-80
2024/01/12 02:18:05;;;;;;;32.85;18.25;;;;;;;-4.81;100.00;102563.59;5059122;28;20416;-80
2024/01/12 02:20:38;;;;;;;35.57;18.90;;;;;;;-4.81;100.00;102560.94;5057979;28;20423;-80
2024/01/12 02:23:08;;;;;;;33.30;18.58;;;;;;;-4.88;100.00;102562.44;5042081;28;20435;-80
2024/01/12 02:25:44;;;;;;;34.72;18.50;;;;;;;-4.95;100.00;102553.31;5058309;28;20799;-81
2024/01/12 02:28:13;;;;;;;32.05;18.15;;;;;;;-5.16;100.00;102550.69;5059467;28;20786;-80
2024/01/12 02:30:47;;;;;;;33.85;17.98;;;;;;;-5.03;100.00;102553.94;5057232;28;20427;-79
2024/01/12 02:33:15;;;;;;;31.27;16.95;;;;;;;-4.91;100.00;102553.91;5039213;28;20918;-80
2024/01/12 02:35:43;;;;;;;37.17;17.65;;;;;;;-4.96;100.00;102560.44;5043548;28;20408;-80
2024/01/12 02:38:18;;;;;;;32.95;17.73;;;;;;;-4.98;100.00;102548.28;5058056;28;20423;-80
2024/01/12 02:40:51;;;;;;;31.75;17.48;;;;;;;-5.05;100.00;102547.94;5047656;28;20428;-80
2024/01/12 02:43:24;;;;;;;30.45;16.83;;;;;;;-5.08;100.00;102548.22;5058845;28;20429;-80
2024/01/12 02:45:51;;;;;;;30.30;16.92;;;;;;;-4.90;100.00;102544.94;5040212;28;20432;-80
2024/01/12 02:48:24;;;;;;;27.42;16.58;;;;;;;-4.90;100.00;102542.28;5045657;28;20810;-80
2024/01/12 02:50:53;;;;;;;29.15;16.33;;;;;;;-4.89;100.00;102536.00;5041615;28;20431;-80
2024/01/12 02:53:27;;;;;;;30.15;16.77;;;;;;;-4.86;100.00;102520.66;5042324;28;20417;-80
2024/01/12 02:55:55;;;;;;;28.92;15.75;;;;;;;-4.93;100.00;102529.28;5061655;28;20415;-80
2024/01/12 02:58:24;;;;;;;27.42;15.50;;;;;;;-5.01;100.00;102514.84;5042231;28;20438;-79
2024/01/12 03:00:57;;;;;;;26.00;15.02;;;;;;;-5.35;100.00;102509.75;5045554;28;20427;-80
2024/01/12 03:03:30;;;;;;;24.95;14.98;;;;;;;-5.15;100.00;102505.41;5046937;28;20912;-80
2024/01/12 03:06:56;;;;;;;25.55;14.40;;;;;;;-5.16;100.00;102502.91;5073158;28;20424;-80
2024/01/12 03:09:34;;;;;;;26.05;14.50;;;;;;;-5.10;100.00;102496.22;5056071;28;20432;-80
2024/01/12 03:12:02;;;;;;;24.50;14.30;;;;;;;-5.02;100.00;102507.03;5059287;28;20823;-80
2024/01/12 03:14:35;;;;;;;23.45;13.43;;;;;;;-5.14;100.00;102495.63;5038685;28;20425;-80
2024/01/12 03:17:03;;;;;;;24.43;14.20;;;;;;;-4.96;100.00;102499.38;5039384;28;20420;-80
2024/01/12 03:19:36;;;;;;;25.20;14.48;;;;;;;-5.21;100.00;102492.66;5057617;28;20417;-80
2024/01/12 03:22:10;;;;;;;22.23;13.98;;;;;;;-5.24;100.00;102484.97;5042276;28;20451;-80
2024/01/12 03:24:44;;;;;;;24.60;14.17;;;;;;;-5.24;100.00;102489.44;5058980;28;20445;-81
2024/01/12 03:27:17;;;;;;;24.08;13.98;;;;;;;-5.27;100.00;102492.34;5057410;28;20442;-80
2024/01/12 03:29:46;;;;;;;23.67;14.18;;;;;;;-5.36;100.00;102480.69;5045070;28;20416;-80
2024/01/12 03:32:14;;;;;;;24.23;14.37;;;;;;;-5.25;100.00;102471.81;5058838;28;20795;-79
2024/01/12 03:34:47;;;;;;;23.92;13.82;;;;;;;-5.34;100.00;102476.94;5050942;28;20423;-80
2024/01/12 03:37:20;;;;;;;24.90;14.05;;;;;;;-5.28;100.00;102480.06;5047761;28;20420;-80
2024/01/12 03:39:55;;;;;;;25.05;14.25;;;;;;;-5.28;100.00;102469.44;5045079;28;20423;-81
2024/01/12 03:42:28;;;;;;;22.02;13.95;;;;;;;-5.33;100.00;102472.47;5060344;28;20434;-80
2024/01/12 03:44:56;;;;;;;24.95;13.80;;;;;;;-5.25;100.00;102464.69;5060729;28;20425;-80
2024/01/12 03:47:24;;;;;;;24.92;14.45;;;;;;;-5.30;100.00;102464.25;5049451;28;20419;-80
2024/01/12 03:49:52;;;;;;;24.02;12.80;;;;;;;-5.25;100.00;102462.03;5051601;28;20411;-80
2024/01/12 03:52:26;;;;;;;23.43;13.80;;;;;;;-5.28;100.00;102461.47;5048375;28;20424;-80
2024/01/12 03:55:00;;;;;;;24.83;14.00;;;;;;;-5.28;100.00;102457.00;5051388;28;20419;-80
2024/01/12 03:57:33;;;;;;;23.48;13.45;;;;;;;-5.33;100.00;102449.44;5060887;28;20424;-80
2024/01/12 04:00:08;;;;;;;24.33;13.57;;;;;;;-5.37;100.00;102453.31;5061183;28;20423;-79
2024/01/12 04:02:41;;;;;;;23.57;13.87;;;;;;;-5.37;100.00;102442.72;5061907;28;20431;-81
2024/01/12 04:05:14;;;;;;;23.27;13.68;;;;;;;-5.45;100.00;102445.16;5052735;28;20421;-80
2024/01/12 04:07:47;;;;;;;25.70;13.98;;;;;;;-5.45;100.00;102437.22;5049169;28;20436;-81
2024/01/12 04:10:22;;;;;;;23.20;13.60;;;;;;;-5.41;100.00;102432.47;5061635;28;20420;-79
2024/01/12 04:12:55;;;;;;;23.77;13.77;;;;;;;-5.37;100.00;102426.78;5063139;28;20441;-79
2024/01/12 04:15:28;;;;;;;24.52;14.38;;;;;;;-5.23;100.00;102422.94;5047075;28;20422;-79
2024/01/12 04:17:55;;;;;;;24.20;13.18;;;;;;;-5.21;100.00;102426.28;5063852;28;20404;-79
2024/01/12 04:20:29;;;;;;;22.92;13.00;;;;;;;-5.24;100.00;102431.03;5041490;28;21214;-80
2024/01/12 04:23:02;;;;;;;24.58;13.85;;;;;;;-5.10;100.00;102428.03;5058952;28;20437;-79
2024/01/12 04:25:37;;;;;;;23.33;13.50;;;;;;;-5.34;100.00;102439.78;5061204;28;20454;-79
2024/01/12 04:28:10;;;;;;;23.98;13.35;;;;;;;-5.22;100.00;102429.94;5050020;28;20423;-79
2024/01/12 04:30:38;;;;;;;23.33;13.95;;;;;;;-5.38;100.00;102434.88;5048529;28;20423;-79
2024/01/12 04:33:06;;;;;;;21.80;13.73;;;;;;;-5.47;100.00;102437.34;5043761;28;20446;-79
2024/01/12 04:35:39;;;;;;;23.77;13.52;;;;;;;-5.50;100.00;102428.78;5061099;28;20792;-79
2024/01/12 04:38:13;;;;;;;23.92;13.43;;;;;;;-5.42;100.00;102426.34;5038525;28;20425;-79
2024/01/12 04:40:47;;;;;;;23.23;13.50;;;;;;;-5.65;100.00;102421.19;5043374;28;20439;-80
2024/01/12 04:43:21;;;;;;;24.20;13.57;;;;;;;-5.66;100.00;102416.84;5058532;28;20442;-80
2024/01/12 04:45:49;;;;;;;22.35;13.30;;;;;;;-5.73;100.00;102418.34;5060899;28;20420;-79
2024/01/12 04:48:22;;;;;;;26.73;13.77;;;;;;;-5.53;100.00;102415.81;5059661;28;20423;-79
2024/01/12 04:50:50;;;;;;;26.65;13.60;;;;;;;-5.59;100.00;102411.84;5045358;28;20794;-79
2024/01/12 04:53:18;;;;;;;25.42;14.05;;;;;;;-5.59;100.00;102418.97;5046119;28;20428;-79
2024/01/12 04:55:53;;;;;;;25.73;14.00;;;;;;;-5.78;100.00;102406.44;5059679;28;20423;-79
2024/01/12 04:58:26;;;;;;;25.75;14.00;;;;;;;-5.68;100.00;102407.31;5048209;28;20434;-79
2024/01/12 05:00:59;;;;;;;24.88;14.00;;;;;;;-5.85;100.00;102401.63;5061468;28;20429;-79
2024/01/12 05:03:27;;;;;;;26.10;13.70;;;;;;;-5.92;100.00;102408.44;5059353;28;20421;-79
2024/01/12 05:06:00;;;;;;;26.67;13.68;;;;;;;-5.85;100.00;102411.41;5048098;28;20431;-80
2024/01/12 05:08:34;;;;;;;25.13;13.93;;;;;;;-5.96;100.00;102409.66;5048089;28;20424;-79
2024/01/12 05:11:08;;;;;;;24.15;13.68;;;;;;;-6.00;100.00;102409.09;5058901;28;20425;-79
2024/01/12 05:13:42;;;;;;;24.02;13.07;;;;;;;-5.89;100.00;102409.97;5058668;28;20815;-79
2024/01/12 05:16:16;;;;;;;24.48;13.60;;;;;;;-5.95;100.00;102408.69;5048714;28;20907;-79
2024/01/12 05:18:44;;;;;;;26.30;13.80;;;;;;;-5.86;100.00;102405.25;5057425;28;20417;-79
2024/01/12 05:21:12;;;;;;;25.60;13.90;;;;;;;-5.97;100.00;102401.84;5047977;28;20433;-80
2024/01/12 05:23:46;;;;;;;25.23;13.18;;;;;;;-6.07;100.00;102407.09;5061430;28;21283;-79
2024/01/12 05:26:16;;;;;;;23.48;13.25;;;;;;;-6.10;100.00;102400.22;5047321;28;20425;-79
2024/01/12 05:28:49;;;;;;;23.20;13.30;;;;;;;-6.08;100.00;102400.94;5057274;28;20412;-79
2024/01/12 05:31:22;;;;;;;25.77;13.60;;;;;;;-6.09;100.00;102399.25;5056815;28;20959;-79
2024/01/12 05:33:50;;;;;;;26.75;13.40;;;;;;;-6.11;100.00;102405.66;5039995;28;20415;-79
2024/01/12 05:36:23;;;;;;;25.58;13.63;;;;;;;-6.21;100.00;102413.53;5049223;28;20419;-79
2024/01/12 05:38:57;;;;;;;26.65;13.95;;;;;;;-6.21;100.00;102419.66;5040081;28;20788;-79
2024/01/12 05:41:31;;;;;;;25.55;13.68;;;;;;;-6.28;100.00;102417.63;5047900;28;20425;-80
2024/01/12 05:44:05;;;;;;;25.85;14.27;;;;;;;-6.36;100.00;102419.09;5060491;28;21037;-80
2024/01/12 05:46:33;;;;;;;24.42;14.18;;;;;;;-6.46;100.00;102412.88;5055135;28;20430;-79
2024/01/12 05:49:07;;;;;;;26.83;14.52;;;;;;;-6.49;100.00;102407.81;5037956;28;20425;-79
2024/01/12 05:51:36;;;;;;;31.35;15.18;;;;;;;-6.55;100.00;102397.72;5057997;28;20879;-79
2024/01/12 05:54:04;;;;;;;39.67;20.05;;;;;;;-6.61;100.00;102399.06;5059464;28;20870;-79
2024/01/12 05:56:39;;;;;;;29.10;14.52;;;;;;;-6.60;100.00;102397.25;5046230;28;20427;-80
2024/01/12 05:59:07;;;;;;;25.23;13.70;;;;;;;-6.16;100.00;102395.41;5058228;28;20429;-79
2024/01/12 06:01:40;;;;;;;24.60;13.65;;;;;;;-6.20;100.00;102397.50;5044716;28;20424;-79
2024/01/12 06:04:14;;;;;;;26.33;13.35;;;;;;;-6.13;100.00;102399.63;5055191;28;20434;-79
2024/01/12 06:06:42;;;;;;;25.50;14.15;;;;;;;-6.22;100.00;102404.72;5057158;28;20429;-79
2024/01/12 06:09:10;;;;;;;26.65;13.32;;;;;;;-6.40;100.00;102414.19;5043124;28;20449;-79
2024/01/12 06:11:45;;;;;;;30.17;15.15;;;;;;;-6.46;100.00;102410.25;5059050;28;20415;-80
2024/01/12 06:14:18;;;;;;;24.33;13.13;;;;;;;-6.56;100.00;102420.75;5059084;28;20451;-79
2024/01/12 06:16:46;;;;;;;27.77;13.63;;;;;;;-6.63;100.00;102416.03;5045432;28;20446;-79
2024/01/12 06:19:19;;;;;;;25.73;13.55;;;;;;;-6.84;100.00;102409.69;5041511;28;20443;-79
2024/01/12 06:21:47;;;;;;;25.35;12.82;;;;;;;-6.97;100.00;102410.78;5047505;28;20421;-79
2024/01/12 06:24:20;;;;;;;24.55;12.65;;;;;;;-6.93;100.00;102425.47;5046132;28;20437;-79
2024/01/12 06:26:50;;;;;;;25.00;12.63;;;;;;;-6.91;100.00;102420.91;5056138;28;20419;-79
2024/01/12 06:29:18;;;;;;;23.65;11.88;;;;;;;-6.82;100.00;102422.81;5057430;28;20432;-79
2024/01/12 06:31:46;;;;;;;27.67;13.13;;;;;;;-6.86;100.00;102418.75;5045599;28;20432;-79
2024/01/12 06:34:20;;;;;;;30.38;13.85;;;;;;;-6.90;100.00;102412.84;5046186;28;20427;-80
2024/01/12 06:36:53;;;;;;;34.63;15.57;;;;;;;-6.90;100.00;102415.47;5041907;28;20420;-79
2024/01/12 06:39:26;;;;;;;32.17;15.63;;;;;;;-6.82;100.00;102419.31;5057852;28;20425;-80
2024/01/12 06:42:01;;;;;;;36.13;14.32;;;;;;;-6.82;100.00;102425.47;5057279;28;20420;-80
2024/01/12 06:44:29;;;;;;;31.20;13.80;;;;;;;-6.72;100.00;102436.16;5045921;28;20784;-80
2024/01/12 06:47:03;;;;;;;31.85;14.00;;;;;;;-6.73;100.00;102431.84;5045973;28;20443;-79
2024/01/12 06:49:37;;;;;;;30.88;13.27;;;;;;;-6.72;100.00;102415.00;5030919;28;20438;-79
2024/01/12 06:52:06;;;;;;;41.50;13.98;;;;;;;-6.71;100.00;102416.66;5039358;28;20860;-79
2024/01/12 06:54:42;;;;;;;34.20;14.05;;;;;;;-6.63;100.00;102421.34;5041148;28;20444;-79
2024/01/12 06:57:12;;;;;;;45.00;14.48;;;;;;;-6.70;100.00;102413.91;5056919;28;20424;-79
2024/01/12 06:59:45;;;;;;;37.03;14.80;;;;;;;-6.55;100.00;102413.63;5045886;28;20434;-80
2024/01/12 07:02:14;;;;;;;37.25;14.82;;;;;;;-6.51;100.00;102410.59;5044686;28;20425;-79
2024/01/12 07:04:42;;;;;;;38.17;13.98;;;;;;;-6.50;100.00;102401.69;5048839;28;20431;-79
2024/01/12 07:07:16;;;;;;;35.55;14.02;;;;;;;-6.53;100.00;102401.94;5062636;28;20431;-79
2024/01/12 07:09:45;;;;;;;34.08;14.10;;;;;;;-6.45;100.00;102403.94;5044512;28;20957;-80
2024/01/12 07:12:15;;;;;;;35.78;14.65;;;;;;;-6.41;100.00;102400.09;5060875;28;20427;-80
2024/01/12 07:14:48;;;;;;;34.97;14.40;;;;;;;-6.35;100.00;102399.59;5040901;28;20787;-79
2024/01/12 07:17:16;;;;;;;37.92;14.82;;;;;;;-6.30;100.00;102398.38;5061356;28;20475;-79
2024/01/12 07:19:49;;;;;;;38.40;14.50;;;;;;;-6.16;100.00;102398.94;5059621;28;20420;-79
2024/01/12 07:22:18;;;;;;;37.65;14.80;;;;;;;-6.22;100.00;102395.94;5041923;28;20431;-79
2024/01/12 07:24:51;;;;;;;49.00;16.38;;;;;;;-6.22;100.00;102393.28;5047958;28;20946;-79
2024/01/12 07:27:20;;;;;;;41.15;15.63;;;;;;;-6.07;100.00;102391.19;5048741;28;20522;-79
2024/01/12 07:29:48;;;;;;;45.50;15.52;;;;;;;-5.89;100.00;102391.41;5041697;28;20429;-79
2024/01/12 07:32:22;;;;;;;53.22;15.05;;;;;;;-6.01;100.00;102383.56;5059344;28;20425;-79
2024/01/12 07:34:50;;;;;;;56.95;15.95;;;;;;;-5.87;100.00;102381.50;5058170;28;20822;-79
2024/01/12 07:37:18;;;;;;;45.77;14.93;;;;;;;-5.77;100.00;102371.81;5060970;28;20423;-79
2024/01/12 07:39:51;;;;;;;45.15;15.60;;;;;;;-5.86;100.00;102373.44;5059824;28;20425;-80
2024/01/12 07:42:23;;;;;;;52.38;15.45;;;;;;;-5.74;100.00;102384.81;5043845;28;20439;-80
2024/01/12 07:44:54;;;;;;;52.88;15.73;;;;;;;-5.70;100.00;102378.28;5059397;28;22262;-80
2024/01/12 07:47:22;;;;;;;39.38;16.50;;;;;;;-5.59;100.00;102365.91;5039164;28;20489;-79
2024/01/12 07:49:56;;;;;;;42.45;16.50;;;;;;;-5.60;100.00;102346.50;5059956;28;20420;-79
2024/01/12 07:52:24;;;;;;;44.15;16.50;;;;;;;-5.43;100.00;102365.44;5057999;28;20420;-80
2024/01/12 07:54:52;;;;;;;39.83;15.63;;;;;;;-5.40;100.00;102360.72;5058345;28;20429;-80
2024/01/12 07:57:27;;;;;;;46.17;17.52;;;;;;;-5.24;100.00;102360.22;5060947;28;21029;-80
2024/01/12 07:59:56;;;;;;;56.70;16.98;;;;;;;-5.20;100.00;102355.50;5057141;28;20432;-79
2024/01/12 08:02:25;;;;;;;48.78;16.83;;;;;;;-5.14;100.00;102352.28;5046027;28;22110;-79
2024/01/12 08:04:53;;;;;;;49.60;17.13;;;;;;;-5.04;100.00;102360.28;5059799;28;20424;-79
2024/01/12 08:07:26;;;;;;;48.42;17.88;;;;;;;-5.12;100.00;102361.78;5039119;28;20478;-80
2024/01/12 08:09:59;;;;;;;42.45;16.45;;;;;;;-4.83;100.00;102350.41;5050372;28;20423;-80
2024/01/12 08:12:34;;;;;;;45.60;16.10;;;;;;;-4.89;100.00;102339.50;5060816;28;20899;-80
2024/01/12 08:15:02;;;;;;;42.53;16.35;;;;;;;-4.81;100.00;102342.31;5058763;28;20424;-81
2024/01/12 08:17:35;;;;;;;48.30;17.75;;;;;;;-4.92;100.00;102339.78;5049329;28;20774;-78
2024/01/12 08:20:09;;;;;;;48.72;18.50;;;;;;;-4.78;100.00;102331.41;5061076;28;20425;-78
2024/01/12 08:22:43;;;;;;;44.70;17.02;;;;;;;-4.79;100.00;102330.56;5052999;28;20458;-83
2024/01/12 08:25:16;;;;;;;46.33;16.83;;;;;;;-4.75;100.00;102315.22;5058041;28;20427;-83
2024/01/12 08:27:51;;;;;;;44.53;16.73;;;;;;;-4.55;100.00;102312.56;5063476;28;20426;-78
2024/01/12 08:30:19;;;;;;;39.40;16.00;;;;;;;-4.57;100.00;102312.72;5067125;28;20765;-81
2024/01/12 08:32:47;;;;;;;43.33;15.35;;;;;;;-4.57;100.00;102314.50;5068706;28;20787;-80
2024/01/12 08:35:20;;;;;;;42.70;15.50;;;;;;;-4.47;100.00;102307.38;5064801;28;20415;-80
2024/01/12 08:37:48;;;;;;;37.97;14.85;;;;;;;-4.45;100.00;102310.72;5052359;28;20802;-80
2024/01/12 08:40:22;;;;;;;41.88;15.95;;;;;;;-4.39;100.00;102301.34;5059864;28;20456;-80
2024/01/12 08:42:57;;;;;;;42.60;15.68;;;;;;;-4.25;100.00;102294.75;5056249;28;20456;-80
2024/01/12 08:45:30;;;;;;;44.75;15.65;;;;;;;-4.25;100.00;102292.97;5046621;28;20424;-82
2024/01/12 08:47:59;;;;;;;46.10;16.52;;;;;;;-4.32;100.00;102303.31;5056227;28;20449;-80
2024/01/12 08:50:33;;;;;;;56.55;18.33;;;;;;;-4.29;100.00;102311.00;5047896;28;20909;-81
2024/01/12 08:53:02;;;;;;;42.70;17.00;;;;;;;-4.24;100.00;102307.91;5055982;28;20515;-81
2024/01/12 08:55:30;;;;;;;49.72;17.40;;;;;;;-4.15;100.00;102307.06;5077945;28;20431;-81
2024/01/12 08:58:00;;;;;;;47.90;16.63;;;;;;;-4.04;100.00;102313.22;5045400;28;20433;-82
2024/01/12 09:00:33;;;;;;;46.13;16.10;;;;;;;-4.15;100.00;102324.84;5042998;28;20417;-82
2024/01/12 09:03:06;;;;;;;40.73;15.47;;;;;;;-4.05;100.00;102316.84;5012149;28;20435;-82
2024/01/12 09:05:39;;;;;;;43.78;15.00;;;;;;;-3.97;100.00;102320.47;5036403;28;21433;-82
2024/01/12 09:08:07;;;;;;;39.43;14.50;;;;;;;-4.00;100.00;102303.97;5026196;28;21306;-82
2024/01/12 09:10:41;;;;;;;38.72;13.80;;;;;;;-3.82;100.00;102304.06;5026960;28;20439;-82
2024/01/12 09:13:10;;;;;;;42.17;13.40;;;;;;;-3.86;100.00;102306.19;5025477;28;20438;-82
2024/01/12 09:15:44;;;;;;;41.38;14.68;;;;;;;-3.84;100.00;102314.88;5030096;28;20434;-82
2024/01/12 09:18:17;;;;;;;35.83;13.07;;;;;;;-3.79;100.00;102319.75;5022686;28;21794;-82
2024/01/12 09:20:51;;;;;;;38.22;14.10;;;;;;;-3.80;100.00;102313.59;5024808;28;20435;-82
2024/01/12 09:23:24;;;;;;;44.53;14.65;;;;;;;-3.70;100.00;102312.72;5026802;28;20432;-82
2024/01/12 09:25:54;;;;;;;35.65;13.57;;;;;;;-3.57;100.00;102309.75;5047694;28;20431;-82
2024/01/12 09:28:24;;;;;;;36.60;13.95;;;;;;;-3.65;100.00;102311.28;5040613;28;20420;-81
2024/01/12 09:30:52;;;;;;;38.55;13.80;;;;;;;-3.57;100.00;102317.72;5020984;28;21188;-82
2024/01/12 09:33:25;;;;;;;33.28;13.48;;;;;;;-3.47;100.00;102316.69;5044927;28;20432;-82
2024/01/12 09:35:58;;;;;;;34.70;13.27;;;;;;;-3.55;100.00;102321.06;5028234;28;20932;-83
2024/01/12 09:38:26;;;;;;;34.50;13.05;;;;;;;-3.53;100.00;102322.59;5023668;28;20438;-83
2024/01/12 09:40:55;;;;;;;42.42;13.52;;;;;;;-3.49;100.00;102316.00;5048548;28;20431;-83
2024/01/12 09:43:28;;;;;;;40.83;12.77;;;;;;;-3.33;100.00;102323.38;5032822;28;20434;-83
2024/01/12 09:46:00;;;;;;;35.90;13.35;;;;;;;-3.35;100.00;102327.16;5024682;28;21293;-83
2024/01/12 09:48:34;;;;;;;41.10;13.47;;;;;;;-3.21;100.00;102331.16;5045311;28;20431;-83
2024/01/12 09:51:06;;;;;;;40.05;13.88;;;;;;;-3.11;100.00;102315.97;5041357;28;20460;-83
2024/01/12 09:53:34;;;;;;;43.55;14.10;;;;;;;-3.12;100.00;102320.47;5022787;28;20914;-83
2024/01/12 09:56:03;;;;;;;35.08;13.38;;;;;;;-2.99;100.00;102308.59;5042061;28;21669;-83
2024/01/12 09:58:38;;;;;;;37.85;13.57;;;;;;;-2.98;100.00;102305.78;5048842;28;20437;-83
2024/01/12 10:01:08;;;;;;;36.10;12.65;;;;;;;-2.96;100.00;102305.63;4995823;28;21043;-83
2024/01/12 10:03:38;;;;;;;33.97;12.93;;;;;;;-2.92;100.00;102312.34;5049379;28;20416;-82
2024/01/12 10:06:07;;;;;;;37.72;13.02;;;;;;;-3.01;100.00;102305.25;5044395;28;20463;-83
2024/01/12 10:08:41;;;;;;;38.08;12.75;;;;;;;-2.96;100.00;102293.16;5044946;28;20434;-83
2024/01/12 10:11:10;;;;;;;36.58;12.98;;;;;;;-3.02;100.00;102291.09;5046078;28;21304;-82
2024/01/12 10:13:39;;;;;;;31.45;11.68;;;;;;;-2.79;100.00;102293.31;5045478;28;20424;-83
2024/01/12 10:16:13;;;;;;;27.85;11.48;;;;;;;-2.63;100.00;102289.97;5050644;28;20425;-80
2024/01/12 10:18:46;;;;;;;31.90;10.75;;;;;;;-2.66;100.00;102284.97;5025089;28;20438;-82
2024/01/12 10:21:15;;;;;;;30.15;11.68;;;;;;;-2.77;100.00;102284.19;5039259;28;20431;-81
2024/01/12 10:23:43;;;;;;;32.43;11.63;;;;;;;-2.72;100.00;102293.56;5043512;28;20525;-81
2024/01/12 10:26:15;;;;;;;28.70;11.95;;;;;;;-2.72;100.00;102285.56;5041288;28;20430;-81
2024/01/12 10:28:51;;;;;;;25.35;11.23;;;;;;;-2.71;100.00;102281.91;5023188;28;20435;-81
2024/01/12 10:31:19;;;;;;;27.83;10.90;;;;;;;-2.65;100.00;102278.63;5024621;28;20436;-82
2024/01/12 10:33:48;;;;;;;29.33;11.50;;;;;;;-2.64;100.00;102272.31;5025414;28;20477;-82
2024/01/12 10:36:22;;;;;;;28.30;11.07;;;;;;;-2.66;100.00;102277.78;5039142;28;20420;-82
2024/01/12 10:38:51;;;;;;;28.95;11.30;;;;;;;-2.59;100.00;102270.84;5026900;28;20434;-81
2024/01/12 10:41:26;;;;;;;29.60;11.30;;;;;;;-2.51;100.00;102264.78;5029924;28;20450;-82
2024/01/12 10:43:58;;;;;;;31.67;11.70;;;;;;;-2.28;100.00;102254.47;5022651;28;20463;-81
2024/01/12 10:46:35;;;;;;;31.73;11.70;;;;;;;-2.29;100.00;102247.44;5044240;28;20430;-81
2024/01/12 10:49:11;;;;;;;28.30;11.25;;;;;;;-2.14;100.00;102244.19;5048928;28;20415;-80
2024/01/12 10:51:55;;;;;;;28.55;11.80;;;;;;;-2.09;100.00;102237.38;5032509;28;20772;-78
2024/01/12 10:54:30;;;;;;;28.63;11.13;;;;;;;-2.07;100.00;102224.75;5023972;28;20498;-80
2024/01/12 10:56:59;;;;;;;30.98;10.98;;;;;;;-1.90;100.00;102222.16;5020734;28;20436;-80
2024/01/12 10:59:34;;;;;;;28.70;10.90;;;;;;;-2.05;100.00;102222.75;5017056;28;20439;-81
2024/01/12 11:02:12;;;;;;;27.17;11.07;;;;;;;-2.02;100.00;102218.94;4997890;28;20621;-81
2024/01/12 11:04:47;;;;;;;26.27;10.80;;;;;;;-1.97;100.00;102229.97;5019045;28;20419;-80
2024/01/12 11:07:17;;;;;;;25.08;10.52;;;;;;;-2.08;100.00;102232.91;5040913;28;20855;-79
2024/01/12 11:09:46;;;;;;;26.42;10.85;;;;;;;-1.99;100.00;102223.13;5024714;28;20434;-81
2024/01/12 11:12:24;;;;;;;27.90;11.27;;;;;;;-2.00;100.00;102232.09;5035771;28;20934;-80
2024/01/12 11:14:54;;;;;;;25.10;11.07;;;;;;;-2.05;100.00;102228.06;5025066;28;20420;-81
2024/01/12 11:17:27;;;;;;;25.42;10.30;;;;;;;-1.98;100.00;102211.44;5026733;28;20427;-80
2024/01/12 11:20:09;;;;;;;25.23;10.35;;;;;;;-1.95;100.00;102205.78;5026417;28;20438;-81
2024/01/12 11:22:46;;;;;;;26.58;10.27;;;;;;;-2.04;100.00;102204.91;5043285;28;20862;-81